sensor_id;sensor_type;location;lat;lon;timestamp;P1;durP1;ratioP1;P2;durP2;ratioP2
41466;SDS011;27205;53.690;19.948;2023-02-01T00:00:24;3.20;;;2.20;;
41466;SDS011;27205;53.690;19.948;2023-02-01T00:05:55;2.90;;;2.40;;
41466;SDS011;27205;53.690;19.948;2023-02-01T00:21:13;1.30;;;1.10;;
41466;SDS011;27205;53.690;19.948;2023-02-01T00:26:19;1.50;;;1.40;;
41466;SDS011;27205;53.690;19.948;2023-02-01T00:31:30;2.00;;;1.80;;
41466;SDS011;27205;53.690;19.948;2023-02-01T00:36:34;2.00;;;1.50;;
41466;SDS011;27205;53.690;19.948;2023-02-01T00:41:38;3.10;;;1.80;;
41466;SDS011;27205;53.690;19.948;2023-02-01T00:46:41;2.70;;;1.70;;
41466;SDS011;27205;53.690;19.948;2023-02-01T00:51:45;2.20;;;1.60;;
41466;SDS011;27205;53.690;19.948;2023-02-01T00:56:49;4.20;;;2.90;;
41466;SDS011;27205;53.690;19.948;2023-02-01T01:01:52;2.80;;;2.00;;
41466;SDS011;27205;53.690;19.948;2023-02-01T01:06:56;3.80;;;2.50;;
41466;SDS011;27205;53.690;19.948;2023-02-01T01:11:59;2.80;;;2.20;;
41466;SDS011;27205;53.690;19.948;2023-02-01T01:17:05;4.00;;;2.90;;
41466;SDS011;27205;53.690;19.948;2023-02-01T01:22:09;2.80;;;1.90;;
41466;SDS011;27205;53.690;19.948;2023-02-01T01:27:12;3.00;;;2.00;;
41466;SDS011;27205;53.690;19.948;2023-02-01T01:32:16;4.10;;;1.70;;
41466;SDS011;27205;53.690;19.948;2023-02-01T01:37:19;2.20;;;1.30;;
41466;SDS011;27205;53.690;19.948;2023-02-01T01:42:23;2.30;;;1.70;;
41466;SDS011;27205;53.690;19.948;2023-02-01T01:47:28;2.10;;;1.80;;
41466;SDS011;27205;53.690;19.948;2023-02-01T01:52:46;3.30;;;2.10;;
41466;SDS011;27205;53.690;19.948;2023-02-01T01:58:12;5.50;;;2.80;;
41466;SDS011;27205;53.690;19.948;2023-02-01T02:03:25;1.90;;;1.10;;
41466;SDS011;27205;53.690;19.948;2023-02-01T02:08:36;2.90;;;2.10;;
41466;SDS011;27205;53.690;19.948;2023-02-01T02:13:41;3.50;;;2.20;;
41466;SDS011;27205;53.690;19.948;2023-02-01T02:34:37;4.90;;;3.30;;
41466;SDS011;27205;53.690;19.948;2023-02-01T02:39:54;4.50;;;2.50;;
41466;SDS011;27205;53.690;19.948;2023-02-01T02:45:15;4.60;;;2.30;;
41466;SDS011;27205;53.690;19.948;2023-02-01T02:56:21;5.60;;;2.90;;
41466;SDS011;27205;53.690;19.948;2023-02-01T03:01:46;12.50;;;9.80;;
41466;SDS011;27205;53.690;19.948;2023-02-01T03:07:14;13.40;;;10.10;;
41466;SDS011;27205;53.690;19.948;2023-02-01T03:12:38;12.30;;;8.80;;
41466;SDS011;27205;53.690;19.948;2023-02-01T03:18:01;8.10;;;6.10;;
41466;SDS011;27205;53.690;19.948;2023-02-01T03:23:09;8.30;;;6.50;;
41466;SDS011;27205;53.690;19.948;2023-02-01T03:28:17;7.80;;;4.40;;
41466;SDS011;27205;53.690;19.948;2023-02-01T03:33:26;7.00;;;4.00;;
41466;SDS011;27205;53.690;19.948;2023-02-01T03:44:15;7.80;;;5.00;;
41466;SDS011;27205;53.690;19.948;2023-02-01T03:49:46;6.20;;;4.10;;
41466;SDS011;27205;53.690;19.948;2023-02-01T03:54:53;4.60;;;2.50;;
41466;SDS011;27205;53.690;19.948;2023-02-01T04:00:08;4.80;;;3.00;;
41466;SDS011;27205;53.690;19.948;2023-02-01T04:05:25;5.40;;;3.30;;
41466;SDS011;27205;53.690;19.948;2023-02-01T04:10:28;4.40;;;3.10;;
41466;SDS011;27205;53.690;19.948;2023-02-01T04:15:32;5.20;;;2.80;;
41466;SDS011;27205;53.690;19.948;2023-02-01T04:20:37;4.70;;;2.80;;
41466;SDS011;27205;53.690;19.948;2023-02-01T04:25:41;6.30;;;3.50;;
41466;SDS011;27205;53.690;19.948;2023-02-01T04:30:45;5.60;;;3.10;;
41466;SDS011;27205;53.690;19.948;2023-02-01T04:35:49;7.00;;;4.00;;
41466;SDS011;27205;53.690;19.948;2023-02-01T04:40:53;5.80;;;3.50;;
41466;SDS011;27205;53.690;19.948;2023-02-01T04:45:56;6.10;;;3.90;;
41466;SDS011;27205;53.690;19.948;2023-02-01T04:51:00;4.60;;;3.10;;
41466;SDS011;27205;53.690;19.948;2023-02-01T04:56:04;10.40;;;7.10;;
41466;SDS011;27205;53.690;19.948;2023-02-01T05:01:08;10.70;;;6.30;;
41466;SDS011;27205;53.690;19.948;2023-02-01T05:06:12;9.80;;;6.60;;
41466;SDS011;27205;53.690;19.948;2023-02-01T05:11:15;8.00;;;5.70;;
41466;SDS011;27205;53.690;19.948;2023-02-01T05:16:38;11.80;;;7.60;;
41466;SDS011;27205;53.690;19.948;2023-02-01T05:21:41;7.20;;;4.20;;
41466;SDS011;27205;53.690;19.948;2023-02-01T05:26:45;8.10;;;4.60;;
41466;SDS011;27205;53.690;19.948;2023-02-01T05:31:49;8.10;;;4.20;;
41466;SDS011;27205;53.690;19.948;2023-02-01T05:36:53;5.90;;;3.50;;
41466;SDS011;27205;53.690;19.948;2023-02-01T05:41:57;5.90;;;4.50;;
41466;SDS011;27205;53.690;19.948;2023-02-01T05:47:01;3.70;;;2.70;;
41466;SDS011;27205;53.690;19.948;2023-02-01T05:52:04;5.00;;;2.70;;
41466;SDS011;27205;53.690;19.948;2023-02-01T05:57:08;4.30;;;2.70;;
41466;SDS011;27205;53.690;19.948;2023-02-01T06:02:11;3.90;;;2.90;;
41466;SDS011;27205;53.690;19.948;2023-02-01T06:07:15;3.70;;;2.60;;
41466;SDS011;27205;53.690;19.948;2023-02-01T06:12:19;2.30;;;1.50;;
41466;SDS011;27205;53.690;19.948;2023-02-01T06:17:22;4.60;;;2.60;;
41466;SDS011;27205;53.690;19.948;2023-02-01T06:22:26;4.40;;;2.60;;
41466;SDS011;27205;53.690;19.948;2023-02-01T06:27:29;3.90;;;3.00;;
41466;SDS011;27205;53.690;19.948;2023-02-01T06:32:33;4.80;;;2.80;;
41466;SDS011;27205;53.690;19.948;2023-02-01T06:37:37;3.10;;;2.10;;
41466;SDS011;27205;53.690;19.948;2023-02-01T06:42:41;3.30;;;2.40;;
41466;SDS011;27205;53.690;19.948;2023-02-01T06:47:44;2.90;;;2.40;;
41466;SDS011;27205;53.690;19.948;2023-02-01T06:52:48;4.40;;;2.90;;
41466;SDS011;27205;53.690;19.948;2023-02-01T06:57:54;7.70;;;4.80;;
41466;SDS011;27205;53.690;19.948;2023-02-01T07:02:59;7.30;;;5.40;;
41466;SDS011;27205;53.690;19.948;2023-02-01T07:08:03;4.30;;;3.50;;
41466;SDS011;27205;53.690;19.948;2023-02-01T07:13:07;6.40;;;3.90;;
41466;SDS011;27205;53.690;19.948;2023-02-01T07:18:10;5.20;;;3.90;;
41466;SDS011;27205;53.690;19.948;2023-02-01T07:23:17;5.30;;;3.70;;
41466;SDS011;27205;53.690;19.948;2023-02-01T07:28:21;4.20;;;3.50;;
41466;SDS011;27205;53.690;19.948;2023-02-01T07:33:25;4.30;;;3.10;;
41466;SDS011;27205;53.690;19.948;2023-02-01T07:38:31;5.40;;;3.50;;
41466;SDS011;27205;53.690;19.948;2023-02-01T07:43:34;6.60;;;4.30;;
41466;SDS011;27205;53.690;19.948;2023-02-01T07:53:42;6.40;;;3.80;;
41466;SDS011;27205;53.690;19.948;2023-02-01T07:58:47;4.50;;;3.10;;
41466;SDS011;27205;53.690;19.948;2023-02-01T08:03:53;9.80;;;4.70;;
41466;SDS011;27205;53.690;19.948;2023-02-01T08:08:59;3.90;;;2.90;;
41466;SDS011;27205;53.690;19.948;2023-02-01T08:14:02;8.30;;;4.80;;
41466;SDS011;27205;53.690;19.948;2023-02-01T08:19:06;6.70;;;3.50;;
41466;SDS011;27205;53.690;19.948;2023-02-01T08:24:10;4.80;;;3.90;;
41466;SDS011;27205;53.690;19.948;2023-02-01T08:29:13;6.20;;;3.70;;
41466;SDS011;27205;53.690;19.948;2023-02-01T08:34:17;6.30;;;4.00;;
41466;SDS011;27205;53.690;19.948;2023-02-01T08:39:24;5.80;;;3.90;;
41466;SDS011;27205;53.690;19.948;2023-02-01T08:44:28;5.30;;;3.40;;
41466;SDS011;27205;53.690;19.948;2023-02-01T08:49:31;5.60;;;3.80;;
41466;SDS011;27205;53.690;19.948;2023-02-01T08:54:35;5.60;;;3.40;;
41466;SDS011;27205;53.690;19.948;2023-02-01T08:59:39;6.20;;;3.80;;
41466;SDS011;27205;53.690;19.948;2023-02-01T09:04:42;6.20;;;3.60;;
41466;SDS011;27205;53.690;19.948;2023-02-01T09:09:46;5.70;;;3.20;;
41466;SDS011;27205;53.690;19.948;2023-02-01T09:14:49;5.90;;;3.60;;
41466;SDS011;27205;53.690;19.948;2023-02-01T09:19:53;4.30;;;3.20;;
41466;SDS011;27205;53.690;19.948;2023-02-01T09:24:57;5.70;;;4.20;;
41466;SDS011;27205;53.690;19.948;2023-02-01T09:30:01;7.20;;;5.20;;
41466;SDS011;27205;53.690;19.948;2023-02-01T09:35:05;8.40;;;5.20;;
41466;SDS011;27205;53.690;19.948;2023-02-01T09:40:12;6.40;;;4.10;;
41466;SDS011;27205;53.690;19.948;2023-02-01T09:45:36;7.00;;;3.70;;
41466;SDS011;27205;53.690;19.948;2023-02-01T09:50:59;5.80;;;3.80;;
41466;SDS011;27205;53.690;19.948;2023-02-01T10:01:21;3.80;;;2.80;;
41466;SDS011;27205;53.690;19.948;2023-02-01T10:06:33;5.90;;;3.90;;
41466;SDS011;27205;53.690;19.948;2023-02-01T10:28:15;7.30;;;4.30;;
41466;SDS011;27205;53.690;19.948;2023-02-01T10:38:36;7.40;;;4.40;;
41466;SDS011;27205;53.690;19.948;2023-02-01T10:43:40;5.50;;;3.80;;
41466;SDS011;27205;53.690;19.948;2023-02-01T10:48:44;10.80;;;5.40;;
41466;SDS011;27205;53.690;19.948;2023-02-01T10:53:59;8.10;;;4.20;;
41466;SDS011;27205;53.690;19.948;2023-02-01T10:59:14;6.70;;;4.00;;
41466;SDS011;27205;53.690;19.948;2023-02-01T11:04:22;9.00;;;5.80;;
41466;SDS011;27205;53.690;19.948;2023-02-01T11:09:29;7.50;;;5.30;;
41466;SDS011;27205;53.690;19.948;2023-02-01T11:14:39;8.50;;;4.90;;
41466;SDS011;27205;53.690;19.948;2023-02-01T11:19:47;7.80;;;5.90;;
41466;SDS011;27205;53.690;19.948;2023-02-01T11:24:59;9.10;;;5.50;;
41466;SDS011;27205;53.690;19.948;2023-02-01T11:30:14;9.50;;;5.90;;
41466;SDS011;27205;53.690;19.948;2023-02-01T11:35:21;8.70;;;5.30;;
41466;SDS011;27205;53.690;19.948;2023-02-01T11:40:26;9.10;;;5.70;;
41466;SDS011;27205;53.690;19.948;2023-02-01T11:45:36;9.70;;;5.30;;
41466;SDS011;27205;53.690;19.948;2023-02-01T11:56:09;7.60;;;5.30;;
41466;SDS011;27205;53.690;19.948;2023-02-01T12:38:50;9.10;;;4.60;;
41466;SDS011;27205;53.690;19.948;2023-02-01T12:54:40;7.10;;;4.10;;
41466;SDS011;27205;53.690;19.948;2023-02-01T13:05:04;5.40;;;4.00;;
41466;SDS011;27205;53.690;19.948;2023-02-01T13:16:02;6.60;;;4.50;;
41466;SDS011;27205;53.690;19.948;2023-02-01T13:21:16;6.60;;;4.30;;
41466;SDS011;27205;53.690;19.948;2023-02-01T13:26:24;7.10;;;4.60;;
41466;SDS011;27205;53.690;19.948;2023-02-01T13:31:51;7.00;;;5.70;;
41466;SDS011;27205;53.690;19.948;2023-02-01T13:43:22;6.60;;;5.10;;
41466;SDS011;27205;53.690;19.948;2023-02-01T13:48:33;10.10;;;7.90;;
41466;SDS011;27205;53.690;19.948;2023-02-01T13:53:57;10.70;;;8.30;;
41466;SDS011;27205;53.690;19.948;2023-02-01T13:59:01;21.90;;;16.10;;
41466;SDS011;27205;53.690;19.948;2023-02-01T14:04:47;24.70;;;21.80;;
41466;SDS011;27205;53.690;19.948;2023-02-01T14:09:52;17.60;;;15.00;;
41466;SDS011;27205;53.690;19.948;2023-02-01T14:20:39;17.00;;;13.10;;
41466;SDS011;27205;53.690;19.948;2023-02-01T14:25:47;10.10;;;6.10;;
41466;SDS011;27205;53.690;19.948;2023-02-01T14:31:13;5.80;;;4.60;;
41466;SDS011;27205;53.690;19.948;2023-02-01T14:36:44;6.60;;;5.10;;
41466;SDS011;27205;53.690;19.948;2023-02-01T14:41:54;6.40;;;5.40;;
41466;SDS011;27205;53.690;19.948;2023-02-01T14:52:09;3.70;;;2.70;;
41466;SDS011;27205;53.690;19.948;2023-02-01T14:57:18;4.90;;;3.70;;
41466;SDS011;27205;53.690;19.948;2023-02-01T15:02:25;3.50;;;2.80;;
41466;SDS011;27205;53.690;19.948;2023-02-01T15:07:33;6.60;;;3.50;;
41466;SDS011;27205;53.690;19.948;2023-02-01T15:12:40;3.70;;;3.00;;
41466;SDS011;27205;53.690;19.948;2023-02-01T15:18:00;3.70;;;2.60;;
41466;SDS011;27205;53.690;19.948;2023-02-01T15:23:05;3.40;;;2.50;;
41466;SDS011;27205;53.690;19.948;2023-02-01T15:33:21;3.60;;;2.60;;
41466;SDS011;27205;53.690;19.948;2023-02-01T15:43:44;4.60;;;2.80;;
41466;SDS011;27205;53.690;19.948;2023-02-01T15:48:58;3.80;;;2.50;;
41466;SDS011;27205;53.690;19.948;2023-02-01T15:54:05;4.80;;;3.20;;
41466;SDS011;27205;53.690;19.948;2023-02-01T15:59:17;4.10;;;2.90;;
41466;SDS011;27205;53.690;19.948;2023-02-01T16:04:46;6.60;;;5.70;;
41466;SDS011;27205;53.690;19.948;2023-02-01T16:15:27;5.90;;;5.30;;
41466;SDS011;27205;53.690;19.948;2023-02-01T16:20:32;4.50;;;3.50;;
41466;SDS011;27205;53.690;19.948;2023-02-01T16:25:38;3.90;;;3.40;;
41466;SDS011;27205;53.690;19.948;2023-02-01T16:30:42;5.80;;;3.90;;
41466;SDS011;27205;53.690;19.948;2023-02-01T16:35:45;6.20;;;5.00;;
41466;SDS011;27205;53.690;19.948;2023-02-01T16:45:54;8.80;;;6.90;;
41466;SDS011;27205;53.690;19.948;2023-02-01T16:51:03;9.10;;;8.20;;
41466;SDS011;27205;53.690;19.948;2023-02-01T16:56:19;19.80;;;16.90;;
41466;SDS011;27205;53.690;19.948;2023-02-01T17:01:24;19.00;;;15.30;;
41466;SDS011;27205;53.690;19.948;2023-02-01T17:06:28;16.30;;;13.90;;
41466;SDS011;27205;53.690;19.948;2023-02-01T17:11:35;12.50;;;11.30;;
41466;SDS011;27205;53.690;19.948;2023-02-01T17:16:40;10.90;;;9.80;;
41466;SDS011;27205;53.690;19.948;2023-02-01T17:21:46;12.80;;;11.40;;
41466;SDS011;27205;53.690;19.948;2023-02-01T17:26:53;17.00;;;15.00;;
41466;SDS011;27205;53.690;19.948;2023-02-01T17:31:57;10.90;;;9.30;;
41466;SDS011;27205;53.690;19.948;2023-02-01T17:37:05;5.60;;;5.00;;
41466;SDS011;27205;53.690;19.948;2023-02-01T17:42:27;4.30;;;3.90;;
41466;SDS011;27205;53.690;19.948;2023-02-01T17:47:32;7.00;;;5.70;;
41466;SDS011;27205;53.690;19.948;2023-02-01T17:52:36;4.70;;;3.90;;
41466;SDS011;27205;53.690;19.948;2023-02-01T17:57:40;5.30;;;3.80;;
41466;SDS011;27205;53.690;19.948;2023-02-01T18:02:43;4.10;;;3.20;;
41466;SDS011;27205;53.690;19.948;2023-02-01T18:07:47;6.70;;;4.60;;
41466;SDS011;27205;53.690;19.948;2023-02-01T18:12:53;18.60;;;15.20;;
41466;SDS011;27205;53.690;19.948;2023-02-01T18:17:58;18.40;;;14.90;;
41466;SDS011;27205;53.690;19.948;2023-02-01T18:23:01;18.70;;;15.40;;
41466;SDS011;27205;53.690;19.948;2023-02-01T18:28:05;23.60;;;20.20;;
41466;SDS011;27205;53.690;19.948;2023-02-01T18:33:11;9.10;;;8.30;;
41466;SDS011;27205;53.690;19.948;2023-02-01T18:38:17;13.30;;;11.90;;
41466;SDS011;27205;53.690;19.948;2023-02-01T18:43:21;20.70;;;18.40;;
41466;SDS011;27205;53.690;19.948;2023-02-01T18:48:25;25.80;;;22.70;;
41466;SDS011;27205;53.690;19.948;2023-02-01T18:53:28;16.90;;;14.30;;
41466;SDS011;27205;53.690;19.948;2023-02-01T18:58:32;9.20;;;7.60;;
41466;SDS011;27205;53.690;19.948;2023-02-01T19:03:35;4.60;;;3.60;;
41466;SDS011;27205;53.690;19.948;2023-02-01T19:08:45;4.80;;;4.10;;
41466;SDS011;27205;53.690;19.948;2023-02-01T19:13:49;19.40;;;16.60;;
41466;SDS011;27205;53.690;19.948;2023-02-01T19:18:53;22.20;;;18.40;;
41466;SDS011;27205;53.690;19.948;2023-02-01T19:23:57;14.90;;;13.30;;
41466;SDS011;27205;53.690;19.948;2023-02-01T19:29:01;19.00;;;16.00;;
41466;SDS011;27205;53.690;19.948;2023-02-01T19:34:04;8.60;;;7.60;;
41466;SDS011;27205;53.690;19.948;2023-02-01T19:39:08;7.60;;;4.40;;
41466;SDS011;27205;53.690;19.948;2023-02-01T19:44:12;4.90;;;4.20;;
41466;SDS011;27205;53.690;19.948;2023-02-01T19:49:16;6.30;;;4.70;;
41466;SDS011;27205;53.690;19.948;2023-02-01T19:54:20;5.00;;;4.20;;
41466;SDS011;27205;53.690;19.948;2023-02-01T19:59:24;7.40;;;5.70;;
41466;SDS011;27205;53.690;19.948;2023-02-01T20:04:28;5.70;;;4.70;;
41466;SDS011;27205;53.690;19.948;2023-02-01T20:09:31;5.30;;;4.70;;
41466;SDS011;27205;53.690;19.948;2023-02-01T20:14:39;4.90;;;4.10;;
41466;SDS011;27205;53.690;19.948;2023-02-01T20:19:43;5.70;;;4.80;;
41466;SDS011;27205;53.690;19.948;2023-02-01T20:24:47;6.50;;;4.60;;
41466;SDS011;27205;53.690;19.948;2023-02-01T20:29:50;6.30;;;4.00;;
41466;SDS011;27205;53.690;19.948;2023-02-01T20:34:54;5.50;;;4.40;;
41466;SDS011;27205;53.690;19.948;2023-02-01T20:39:58;5.90;;;4.80;;
41466;SDS011;27205;53.690;19.948;2023-02-01T20:45:05;6.70;;;5.40;;
41466;SDS011;27205;53.690;19.948;2023-02-01T20:50:09;7.80;;;5.40;;
41466;SDS011;27205;53.690;19.948;2023-02-01T20:55:13;6.80;;;5.20;;
41466;SDS011;27205;53.690;19.948;2023-02-01T21:00:17;6.20;;;5.40;;
41466;SDS011;27205;53.690;19.948;2023-02-01T21:05:21;5.60;;;5.10;;
41466;SDS011;27205;53.690;19.948;2023-02-01T21:10:27;6.20;;;5.30;;
41466;SDS011;27205;53.690;19.948;2023-02-01T21:15:31;5.90;;;5.30;;
41466;SDS011;27205;53.690;19.948;2023-02-01T21:20:38;4.50;;;4.00;;
41466;SDS011;27205;53.690;19.948;2023-02-01T21:25:42;4.90;;;4.40;;
41466;SDS011;27205;53.690;19.948;2023-02-01T21:30:46;5.20;;;4.70;;
41466;SDS011;27205;53.690;19.948;2023-02-01T21:35:50;3.50;;;3.20;;
41466;SDS011;27205;53.690;19.948;2023-02-01T21:40:54;3.80;;;3.50;;
41466;SDS011;27205;53.690;19.948;2023-02-01T21:46:18;5.00;;;4.20;;
41466;SDS011;27205;53.690;19.948;2023-02-01T21:51:21;4.60;;;4.20;;
41466;SDS011;27205;53.690;19.948;2023-02-01T21:56:25;4.70;;;4.30;;
41466;SDS011;27205;53.690;19.948;2023-02-01T22:01:29;5.20;;;4.70;;
41466;SDS011;27205;53.690;19.948;2023-02-01T22:06:34;5.90;;;5.40;;
41466;SDS011;27205;53.690;19.948;2023-02-01T22:11:39;8.00;;;7.20;;
41466;SDS011;27205;53.690;19.948;2023-02-01T22:16:43;8.00;;;6.40;;
41466;SDS011;27205;53.690;19.948;2023-02-01T22:21:47;7.50;;;6.30;;
41466;SDS011;27205;53.690;19.948;2023-02-01T22:26:50;6.60;;;6.00;;
41466;SDS011;27205;53.690;19.948;2023-02-01T22:31:55;5.40;;;4.70;;
41466;SDS011;27205;53.690;19.948;2023-02-01T22:42:02;7.70;;;5.10;;
41466;SDS011;27205;53.690;19.948;2023-02-01T22:47:06;5.10;;;4.70;;
41466;SDS011;27205;53.690;19.948;2023-02-01T22:52:09;4.50;;;4.00;;
41466;SDS011;27205;53.690;19.948;2023-02-01T22:57:13;4.70;;;4.30;;
41466;SDS011;27205;53.690;19.948;2023-02-01T23:02:16;4.70;;;4.20;;
41466;SDS011;27205;53.690;19.948;2023-02-01T23:07:20;4.40;;;4.00;;
41466;SDS011;27205;53.690;19.948;2023-02-01T23:12:24;5.20;;;4.70;;
41466;SDS011;27205;53.690;19.948;2023-02-01T23:17:27;6.70;;;6.10;;
41466;SDS011;27205;53.690;19.948;2023-02-01T23:22:31;5.50;;;4.20;;
41466;SDS011;27205;53.690;19.948;2023-02-01T23:27:34;4.50;;;4.10;;
41466;SDS011;27205;53.690;19.948;2023-02-01T23:32:38;5.00;;;4.20;;
41466;SDS011;27205;53.690;19.948;2023-02-01T23:37:41;4.70;;;4.30;;
41466;SDS011;27205;53.690;19.948;2023-02-01T23:42:45;4.40;;;3.90;;
41466;SDS011;27205;53.690;19.948;2023-02-01T23:48:08;6.40;;;5.80;;
41466;SDS011;27205;53.690;19.948;2023-02-01T23:53:12;3.70;;;3.50;;
41466;SDS011;27205;53.690;19.948;2023-02-01T23:58:16;4.90;;;4.50;;
